createdAt,value
2023-04-01T00:00:23.546Z,66.75
2023-04-01T00:02:50.879Z,65.83
2023-04-01T00:05:18.679Z,67.33
2023-04-01T00:07:46.024Z,68.36
2023-04-01T00:10:16.010Z,67.51
2023-04-01T00:12:43.942Z,65.53
2023-04-01T00:15:13.248Z,66.15
2023-04-01T00:17:40.620Z,65.44
2023-04-01T00:20:09.471Z,65.61
2023-04-01T00:22:37.013Z,65.91
2023-04-01T00:25:05.610Z,65.53
2023-04-01T00:27:33.344Z,64.29
2023-04-01T00:30:04.379Z,64.46
2023-04-01T00:32:32.377Z,64.57
2023-04-01T00:35:01.179Z,64.30
2023-04-01T00:37:29.478Z,64.77
2023-04-01T00:39:57.654Z,65.05
2023-04-01T00:42:25.597Z,64.99
2023-04-01T00:44:54.023Z,64.73
2023-04-01T00:47:21.568Z,65.31
2023-04-01T00:49:51.906Z,66.15
2023-04-01T00:52:24.447Z,65.32
2023-04-01T00:54:54.869Z,64.66
2023-04-01T00:57:27.459Z,65.89
2023-04-01T00:59:56.479Z,65.29
2023-04-01T01:02:26.192Z,66.16
2023-04-01T01:04:53.484Z,66.04
2023-04-01T01:07:40.463Z,66.41
2023-04-01T01:10:13.746Z,66.97
2023-04-01T01:13:06.989Z,66.44
2023-04-01T01:15:35.775Z,66.19
2023-04-01T01:18:08.795Z,65.70
2023-04-01T01:20:54.359Z,65.94
2023-04-01T01:23:32.010Z,66.46
2023-04-01T01:26:12.124Z,66.92
2023-04-01T01:28:39.090Z,67.09
2023-04-01T01:31:19.181Z,67.02
2023-04-01T01:33:50.587Z,66.13
2023-04-01T01:36:20.198Z,66.68
2023-04-01T01:38:49.503Z,65.68
2023-04-01T01:41:19.958Z,65.36
2023-04-01T01:43:49.654Z,65.91
2023-04-01T01:46:19.641Z,67.13
2023-04-01T01:48:49.485Z,66.46
2023-04-01T01:51:17.111Z,68.24
2023-04-01T01:53:44.592Z,67.00
2023-04-01T01:56:17.023Z,66.40
2023-04-01T01:58:46.217Z,68.23
2023-04-01T02:01:18.090Z,67.58
2023-04-01T02:03:47.086Z,68.23
2023-04-01T02:06:17.201Z,67.36
2023-04-01T02:08:47.069Z,67.34
2023-04-01T02:11:16.672Z,67.09
2023-04-01T02:13:50.266Z,66.39
2023-04-01T02:16:31.029Z,66.21
2023-04-01T02:18:59.521Z,66.39
2023-04-01T02:21:30.220Z,67.11
2023-04-01T02:23:59.082Z,68.73
2023-04-01T02:26:27.945Z,67.22
2023-04-01T02:28:56.537Z,66.47
2023-04-01T02:31:25.239Z,66.77
2023-04-01T02:33:55.408Z,67.77
2023-04-01T02:36:22.997Z,67.08
2023-04-01T02:38:51.586Z,66.84
2023-04-01T02:41:19.358Z,67.65
2023-04-01T02:43:46.843Z,66.70
2023-04-01T02:46:14.016Z,65.96
2023-04-01T02:48:41.734Z,66.28
2023-04-01T02:51:09.751Z,65.71
2023-04-01T02:53:37.226Z,66.21
2023-04-01T02:56:04.544Z,66.06
2023-04-01T02:58:33.101Z,66.52
2023-04-01T03:01:01.648Z,69.10
2023-04-01T03:03:29.016Z,68.91
2023-04-01T03:05:59.873Z,67.76
2023-04-01T03:08:29.391Z,67.04
2023-04-01T03:10:58.491Z,67.08
2023-04-01T03:13:26.982Z,70.52
2023-04-01T03:15:55.216Z,67.60
2023-04-01T03:18:22.690Z,68.75
2023-04-01T03:20:50.120Z,69.83
2023-04-01T03:23:19.410Z,67.41
2023-04-01T03:25:48.585Z,66.59
2023-04-01T03:28:15.890Z,67.46
2023-04-01T03:30:43.524Z,68.98
2023-04-01T03:33:12.652Z,69.77
2023-04-01T03:35:41.380Z,70.77
2023-04-01T03:38:08.562Z,73.84
2023-04-01T03:40:38.519Z,82.48
2023-04-01T03:43:09.550Z,83.87
2023-04-01T03:45:37.118Z,90.31
2023-04-01T03:48:05.053Z,91.91
2023-04-01T03:50:32.642Z,89.99
2023-04-01T03:53:00.070Z,93.72
2023-04-01T03:55:27.485Z,100.00
2023-04-01T03:57:54.674Z,100.00
2023-04-01T04:00:22.092Z,100.00
2023-04-01T04:02:49.630Z,100.00
2023-04-01T04:05:17.219Z,95.86
2023-04-01T04:07:44.574Z,100.00
2023-04-01T04:10:12.075Z,100.00
2023-04-01T04:12:39.596Z,100.00
2023-04-01T04:15:06.905Z,100.00
2023-04-01T04:17:34.156Z,100.00
2023-04-01T04:20:02.989Z,100.00
2023-04-01T04:22:30.525Z,97.27
2023-04-01T04:24:57.805Z,92.32
2023-04-01T04:27:25.079Z,91.79
2023-04-01T04:29:52.461Z,100.00
2023-04-01T04:32:20.112Z,100.00
2023-04-01T04:34:47.580Z,100.00
2023-04-01T04:37:15.011Z,96.83
2023-04-01T04:39:42.565Z,92.29
2023-04-01T04:42:09.648Z,92.94
2023-04-01T04:44:36.955Z,100.00
2023-04-01T04:47:03.909Z,94.20
2023-04-01T04:49:31.273Z,96.63
2023-04-01T04:51:58.645Z,94.92
2023-04-01T04:54:26.022Z,94.25
2023-04-01T04:56:53.704Z,92.63
2023-04-01T04:59:21.200Z,95.95
2023-04-01T05:01:48.598Z,93.61
2023-04-01T05:04:16.073Z,95.56
2023-04-01T05:06:45.427Z,96.94
2023-04-01T05:09:12.675Z,92.41
2023-04-01T05:11:40.998Z,92.60
2023-04-01T05:14:13.280Z,93.64
2023-04-01T05:16:40.919Z,92.69
2023-04-01T05:19:08.846Z,90.76
2023-04-01T05:21:37.103Z,87.71
2023-04-01T05:24:04.709Z,91.61
2023-04-01T05:26:34.037Z,93.42
2023-04-01T05:29:01.823Z,91.62
2023-04-01T05:31:29.275Z,93.08
2023-04-01T05:33:56.829Z,91.92
2023-04-01T05:36:24.113Z,88.50
2023-04-01T05:38:51.694Z,89.48
2023-04-01T05:41:20.119Z,91.44
2023-04-01T05:43:47.733Z,90.98
2023-04-01T05:46:14.877Z,85.68
2023-04-01T05:48:42.236Z,85.65
2023-04-01T05:51:13.754Z,92.99
2023-04-01T05:53:41.499Z,93.24
2023-04-01T05:56:10.558Z,93.40
2023-04-01T05:58:38.412Z,97.89
2023-04-01T06:01:11.624Z,91.19
2023-04-01T06:03:41.788Z,91.07
2023-04-01T06:06:16.843Z,88.40
2023-04-01T06:08:44.481Z,90.18
2023-04-01T06:11:24.997Z,86.39
2023-04-01T06:14:00.517Z,84.02
2023-04-01T06:16:31.821Z,86.67
2023-04-01T06:19:14.167Z,84.52
2023-04-01T06:22:06.102Z,86.60
2023-04-01T06:24:48.345Z,90.64
2023-04-01T06:27:22.859Z,89.69
2023-04-01T06:30:20.034Z,87.13
2023-04-01T06:33:02.712Z,88.54
2023-04-01T06:35:33.211Z,90.65
2023-04-01T06:38:06.671Z,92.42
2023-04-01T06:40:46.819Z,91.09
2023-04-01T06:43:32.771Z,91.21
2023-04-01T06:45:59.696Z,86.47
2023-04-01T06:48:35.665Z,92.69
2023-04-01T06:51:13.061Z,89.21
2023-04-01T06:53:47.523Z,90.31
2023-04-01T06:56:16.905Z,90.73
2023-04-01T06:58:47.697Z,87.89
2023-04-01T07:01:18.619Z,92.30
2023-04-01T07:04:12.361Z,90.85
2023-04-01T07:06:52.644Z,87.84
2023-04-01T07:09:26.150Z,92.81
2023-04-01T07:11:55.217Z,94.77
2023-04-01T07:14:26.738Z,93.27
2023-04-01T07:17:00.161Z,93.77
2023-04-01T07:19:36.349Z,96.45
2023-04-01T07:22:12.076Z,89.25
2023-04-01T07:24:43.522Z,89.20
2023-04-01T07:27:11.951Z,87.14
2023-04-01T07:29:40.215Z,85.04
2023-04-01T07:32:19.520Z,85.53
2023-04-01T07:34:52.411Z,88.37
2023-04-01T07:37:19.653Z,92.28
2023-04-01T07:40:06.528Z,89.88
2023-04-01T07:42:34.719Z,92.50
2023-04-01T07:45:20.076Z,91.32
2023-04-01T07:47:58.293Z,86.43
2023-04-01T07:50:39.174Z,88.21
2023-04-01T07:53:13.573Z,95.86
2023-04-01T07:55:41.031Z,91.57
2023-04-01T07:58:23.079Z,89.27
2023-04-01T08:01:15.772Z,90.02
2023-04-01T08:03:43.468Z,89.86
2023-04-01T08:06:30.705Z,87.04
2023-04-01T08:08:57.844Z,82.92
2023-04-01T08:11:43.776Z,92.12
2023-04-01T08:14:11.015Z,88.60
2023-04-01T08:16:47.291Z,91.93
2023-04-01T08:19:15.702Z,92.72
2023-04-01T08:21:45.819Z,86.49
2023-04-01T08:24:46.454Z,82.61
2023-04-01T08:27:19.635Z,84.77
2023-04-01T08:29:53.820Z,87.55
2023-04-01T08:32:25.283Z,88.79
2023-04-01T08:34:56.678Z,85.46
2023-04-01T08:37:25.980Z,86.50
2023-04-01T08:39:56.212Z,89.14
2023-04-01T08:42:29.902Z,84.10
2023-04-01T08:45:06.426Z,83.55
2023-04-01T08:47:35.801Z,86.46
2023-04-01T08:50:02.892Z,89.00
2023-04-01T08:53:03.305Z,87.51
2023-04-01T08:55:30.952Z,84.75
2023-04-01T08:58:13.157Z,86.69
2023-04-01T09:00:52.898Z,86.71
2023-04-01T09:03:35.365Z,88.46
2023-04-01T09:06:12.556Z,92.36
2023-04-01T09:08:52.256Z,91.35
2023-04-01T09:11:29.046Z,93.60
2023-04-01T09:14:14.786Z,90.68
2023-04-01T09:16:51.866Z,93.01
2023-04-01T09:19:37.260Z,93.56
2023-04-01T09:22:17.269Z,98.22
2023-04-01T09:24:57.847Z,91.38
2023-04-01T09:27:51.652Z,90.98
2023-04-01T09:30:28.516Z,94.79
2023-04-01T09:33:10.838Z,89.69
2023-04-01T09:35:57.450Z,86.69
2023-04-01T09:38:30.605Z,87.81
2023-04-01T09:40:58.133Z,88.83
2023-04-01T09:43:28.310Z,81.84
2023-04-01T09:46:06.432Z,84.16
2023-04-01T09:48:44.486Z,83.16
2023-04-01T09:51:23.415Z,85.16
2023-04-01T09:53:58.108Z,87.49
2023-04-01T09:56:40.957Z,90.36
2023-04-01T09:59:39.881Z,87.57
2023-04-01T10:02:07.535Z,91.46
2023-04-01T10:04:53.719Z,90.57
2023-04-01T10:07:32.788Z,90.66
2023-04-01T10:10:18.791Z,88.28
2023-04-01T10:12:55.719Z,89.32
2023-04-01T10:15:42.250Z,92.11
2023-04-01T10:18:32.461Z,95.45
2023-04-01T10:21:16.356Z,91.21
2023-04-01T10:23:46.499Z,89.66
2023-04-01T10:26:32.368Z,89.05
2023-04-01T10:29:04.506Z,84.16
2023-04-01T10:31:37.827Z,83.21
2023-04-01T10:34:24.131Z,87.03
2023-04-01T10:36:55.669Z,88.21
2023-04-01T10:39:41.957Z,88.31
2023-04-01T10:42:27.996Z,90.13
2023-04-01T10:45:13.978Z,95.31
2023-04-01T10:47:52.381Z,96.41
2023-04-01T10:50:26.558Z,89.13
2023-04-01T10:52:53.890Z,90.23
2023-04-01T10:55:39.887Z,89.21
2023-04-01T10:58:15.383Z,93.77
2023-04-01T11:00:48.082Z,89.19
2023-04-01T11:03:34.077Z,88.00
2023-04-01T11:06:17.296Z,94.25
2023-04-01T11:09:02.532Z,95.29
2023-04-01T11:11:48.226Z,92.96
2023-04-01T11:14:18.563Z,82.90
2023-04-01T11:16:50.901Z,88.79
2023-04-01T11:19:29.829Z,92.61
2023-04-01T11:22:26.267Z,92.49
2023-04-01T11:25:11.538Z,86.95
2023-04-01T11:28:08.876Z,87.54
2023-04-01T11:30:36.106Z,89.41
2023-04-01T11:33:07.094Z,92.48
2023-04-01T11:35:40.082Z,87.96
2023-04-01T11:38:25.264Z,82.04
2023-04-01T11:41:01.062Z,84.29
2023-04-01T11:43:38.290Z,89.39
2023-04-01T11:46:43.012Z,90.33
2023-04-01T11:49:28.512Z,88.50
2023-04-01T11:51:55.821Z,87.51
2023-04-01T11:54:22.657Z,84.68
2023-04-01T11:57:01.892Z,85.97
2023-04-01T11:59:41.919Z,87.85
2023-04-01T12:02:11.996Z,85.84
2023-04-01T12:04:44.854Z,87.66
2023-04-01T12:07:17.966Z,87.04
2023-04-01T12:09:51.526Z,87.00
2023-04-01T12:12:18.364Z,93.09
2023-04-01T12:14:45.155Z,91.97
2023-04-01T12:17:36.792Z,90.14
2023-04-01T12:20:13.889Z,91.22
2023-04-01T12:23:06.927Z,88.02
2023-04-01T12:25:52.493Z,86.85
2023-04-01T12:28:35.621Z,89.53
2023-04-01T12:31:15.733Z,88.87
2023-04-01T12:33:49.976Z,87.42
2023-04-01T12:36:16.769Z,94.17
2023-04-01T12:38:53.957Z,89.93
2023-04-01T12:41:36.368Z,93.98
2023-04-01T12:44:03.430Z,91.68
2023-04-01T12:46:50.307Z,95.94
2023-04-01T12:49:35.835Z,96.65
2023-04-01T12:52:06.146Z,91.93
2023-04-01T12:54:52.169Z,93.54
2023-04-01T12:57:21.834Z,92.16
2023-04-01T12:59:52.500Z,95.32
2023-04-01T13:02:28.459Z,90.20
2023-04-01T13:05:14.295Z,92.55
2023-04-01T13:07:47.482Z,90.39
2023-04-01T13:10:14.416Z,90.29
2023-04-01T13:12:54.413Z,93.80
2023-04-01T13:15:32.619Z,92.96
2023-04-01T13:18:09.523Z,95.71
2023-04-01T13:20:36.268Z,93.99
2023-04-01T13:23:26.250Z,89.91
2023-04-01T13:26:15.363Z,90.56
2023-04-01T13:28:54.970Z,91.73
2023-04-01T13:31:40.640Z,90.95
2023-04-01T13:34:35.218Z,84.73
2023-04-01T13:37:05.706Z,86.43
2023-04-01T13:39:46.931Z,92.51
2023-04-01T13:42:30.046Z,86.45
2023-04-01T13:45:16.410Z,84.74
2023-04-01T13:47:44.536Z,95.65
2023-04-01T13:50:15.214Z,90.79
2023-04-01T13:52:42.852Z,89.51
2023-04-01T13:55:21.648Z,89.74
2023-04-01T13:58:23.184Z,85.29
2023-04-01T14:01:05.276Z,86.46
2023-04-01T14:03:51.087Z,91.98
2023-04-01T14:06:31.208Z,92.55
2023-04-01T14:09:10.459Z,86.43
2023-04-01T14:11:57.377Z,85.41
2023-04-01T14:14:39.270Z,89.66
2023-04-01T14:17:15.850Z,91.59
2023-04-01T14:20:03.045Z,91.56
2023-04-01T14:22:39.429Z,91.10
2023-04-01T14:25:24.564Z,92.53
2023-04-01T14:27:54.400Z,89.99
2023-04-01T14:30:40.883Z,87.60
2023-04-01T14:33:17.967Z,86.35
2023-04-01T14:35:45.309Z,87.75
2023-04-01T14:38:21.557Z,84.86
2023-04-01T14:41:05.244Z,84.08
2023-04-01T14:43:40.145Z,89.36
2023-04-01T14:46:11.229Z,89.88
2023-04-01T14:48:38.823Z,86.15
2023-04-01T14:51:16.694Z,82.80
2023-04-01T14:53:52.205Z,82.72
2023-04-01T14:56:36.471Z,85.77
2023-04-01T14:59:08.723Z,84.54
2023-04-01T15:01:55.435Z,82.95
2023-04-01T15:04:31.305Z,82.25
2023-04-01T15:07:27.658Z,83.27
2023-04-01T15:09:54.762Z,82.20
2023-04-01T15:12:23.388Z,81.69
2023-04-01T15:14:56.953Z,79.67
2023-04-01T15:17:25.067Z,82.03
2023-04-01T15:20:10.317Z,85.22
2023-04-01T15:22:58.412Z,84.35
2023-04-01T15:25:37.793Z,81.05
2023-04-01T15:28:11.130Z,77.68
2023-04-01T15:30:53.814Z,79.00
2023-04-01T15:33:27.257Z,79.07
2023-04-01T15:35:54.915Z,77.61
2023-04-01T15:38:36.517Z,84.37
2023-04-01T15:41:10.329Z,84.56
2023-04-01T15:43:43.114Z,87.17
2023-04-01T15:46:36.024Z,90.77
2023-04-01T15:49:24.334Z,89.31
2023-04-01T15:51:51.621Z,88.87
2023-04-01T15:54:49.318Z,92.18
2023-04-01T15:57:16.850Z,83.08
2023-04-01T15:59:44.989Z,83.25
2023-04-01T16:02:15.177Z,81.62
2023-04-01T16:04:52.673Z,76.43
2023-04-01T16:07:39.069Z,79.64
2023-04-01T16:10:11.684Z,81.78
2023-04-01T16:12:44.781Z,79.32
2023-04-01T16:15:21.576Z,82.80
2023-04-01T16:17:51.557Z,84.01
2023-04-01T16:20:48.930Z,87.67
2023-04-01T16:23:35.193Z,82.69
2023-04-01T16:26:09.269Z,86.64
2023-04-01T16:28:45.924Z,87.43
2023-04-01T16:31:32.349Z,85.94
2023-04-01T16:34:20.609Z,88.27
2023-04-01T16:36:53.270Z,86.19
2023-04-01T16:39:45.914Z,87.10
2023-04-01T16:42:19.392Z,85.40
2023-04-01T16:44:57.630Z,84.37
2023-04-01T16:47:29.645Z,84.14
2023-04-01T16:50:10.190Z,86.30
2023-04-01T16:53:03.571Z,86.10
2023-04-01T16:56:02.080Z,83.41
2023-04-01T16:58:51.069Z,87.02
2023-04-01T17:01:24.223Z,85.83
2023-04-01T17:03:56.170Z,83.34
2023-04-01T17:06:47.008Z,83.82
2023-04-01T17:09:33.888Z,81.29
2023-04-01T17:12:19.682Z,83.47
2023-04-01T17:15:02.090Z,85.60
2023-04-01T17:20:27.986Z,80.78
2023-04-01T17:23:01.445Z,80.49
2023-04-01T17:25:35.189Z,81.59
2023-04-01T17:28:05.722Z,83.71
2023-04-01T17:31:09.606Z,85.25
2023-04-01T17:33:43.100Z,86.17
2023-04-01T17:36:29.032Z,84.71
2023-04-01T17:39:15.394Z,85.24
2023-04-01T17:41:47.481Z,84.62
2023-04-01T17:44:20.678Z,82.33
2023-04-01T17:47:03.128Z,84.17
2023-04-01T17:49:30.283Z,82.38
2023-04-01T17:51:57.676Z,83.10
2023-04-01T17:54:43.634Z,86.22
2023-04-01T17:57:16.589Z,86.48
2023-04-01T17:59:54.914Z,86.17
2023-04-01T18:02:42.394Z,83.91
2023-04-01T18:05:28.631Z,81.67
2023-04-01T18:08:14.077Z,83.68
2023-04-01T18:11:06.057Z,83.42
2023-04-01T18:13:57.994Z,82.24
2023-04-01T18:16:36.570Z,82.15
2023-04-01T18:19:03.806Z,82.14
2023-04-01T18:21:35.265Z,80.64
2023-04-01T18:24:21.211Z,83.23
2023-04-01T18:26:52.267Z,86.10
2023-04-01T18:29:42.027Z,85.78
2023-04-01T18:32:12.211Z,86.63
2023-04-01T18:34:53.822Z,82.51
2023-04-01T18:37:24.740Z,80.62
2023-04-01T18:39:56.142Z,81.87
2023-04-01T18:42:42.664Z,80.43
2023-04-01T18:45:24.639Z,74.86
2023-04-01T18:48:10.364Z,75.11
2023-04-01T18:50:45.532Z,73.60
2023-04-01T18:53:20.657Z,74.11
2023-04-01T18:55:59.589Z,73.89
2023-04-01T18:58:26.982Z,72.60
2023-04-01T19:01:06.614Z,71.94
2023-04-01T19:03:34.410Z,72.16
2023-04-01T19:06:15.616Z,74.90
2023-04-01T19:08:43.195Z,74.25
2023-04-01T19:11:30.841Z,72.65
2023-04-01T19:13:57.761Z,72.91
2023-04-01T19:16:25.751Z,70.57
2023-04-01T19:18:59.698Z,73.04
2023-04-01T19:21:35.065Z,72.64
2023-04-01T19:24:05.276Z,73.47
2023-04-01T19:26:50.621Z,74.56
2023-04-01T19:29:24.182Z,71.01
2023-04-01T19:31:57.170Z,71.88
2023-04-01T19:34:32.806Z,72.05
2023-04-01T19:37:18.837Z,72.03
2023-04-01T19:39:45.741Z,70.40
2023-04-01T19:42:12.796Z,69.94
2023-04-01T19:44:44.365Z,69.28
2023-04-01T19:47:30.518Z,72.40
2023-04-01T19:50:17.683Z,73.01
2023-04-01T19:52:49.619Z,70.00
2023-04-01T19:55:34.913Z,67.69
2023-04-01T19:58:03.863Z,66.62
2023-04-01T20:00:36.188Z,65.15
2023-04-01T20:03:22.916Z,67.39
2023-04-01T20:06:08.734Z,66.14
2023-04-01T20:08:55.857Z,67.86
2023-04-01T20:11:47.883Z,65.60
2023-04-01T20:14:34.605Z,64.91
2023-04-01T20:17:09.582Z,65.61
2023-04-01T20:19:42.022Z,63.87
2023-04-01T20:22:33.190Z,65.47
2023-04-01T20:25:07.298Z,66.67
2023-04-01T20:27:38.358Z,67.14
2023-04-01T20:30:25.061Z,68.49
2023-04-01T20:33:08.563Z,69.62
2023-04-01T20:35:36.837Z,67.59
2023-04-01T20:38:08.546Z,68.37
2023-04-01T20:40:41.833Z,69.45
2023-04-01T20:43:12.282Z,71.05
2023-04-01T20:45:49.137Z,72.23
2023-04-01T20:48:36.108Z,68.98
2023-04-01T20:51:23.385Z,67.98
2023-04-01T20:54:06.963Z,69.88
2023-04-01T20:57:01.364Z,68.31
2023-04-01T20:59:47.814Z,69.52
2023-04-01T21:02:33.409Z,68.21
2023-04-01T21:05:21.341Z,68.80
2023-04-01T21:08:12.123Z,68.97
2023-04-01T21:10:48.646Z,68.75
2023-04-01T21:13:25.412Z,67.00
2023-04-01T21:16:01.819Z,66.84
2023-04-01T21:18:49.079Z,67.59
2023-04-01T21:21:41.556Z,68.07
2023-04-01T21:24:27.405Z,69.42
2023-04-01T21:27:01.757Z,68.09
2023-04-01T21:29:48.617Z,70.77
2023-04-01T21:32:31.425Z,69.46
2023-04-01T21:35:21.646Z,69.09
2023-04-01T21:38:06.868Z,70.99
2023-04-01T21:40:36.889Z,70.64
2023-04-01T21:43:13.220Z,70.99
2023-04-01T21:45:52.010Z,71.45
2023-04-01T21:48:19.124Z,69.37
2023-04-01T21:50:58.457Z,68.82
2023-04-01T21:54:01.380Z,68.10
2023-04-01T21:56:43.588Z,67.36
2023-04-01T21:59:16.201Z,67.15
2023-04-01T22:01:52.392Z,67.75
2023-04-01T22:04:21.888Z,68.47
2023-04-01T22:06:57.804Z,67.89
2023-04-01T22:09:35.616Z,65.25
2023-04-01T22:12:04.157Z,67.41
2023-04-01T22:14:41.527Z,67.69
2023-04-01T22:17:28.330Z,68.66
2023-04-01T22:19:57.892Z,71.87
2023-04-01T22:22:31.989Z,71.48
2023-04-01T22:24:58.920Z,69.36
2023-04-01T22:27:30.070Z,67.84
2023-04-01T22:30:13.292Z,69.15
2023-04-01T22:32:51.113Z,68.45
2023-04-01T22:35:38.521Z,65.65
2023-04-01T22:38:20.780Z,67.02
2023-04-01T22:40:51.019Z,68.81
2023-04-01T22:43:24.606Z,68.48
2023-04-01T22:46:01.190Z,68.95
2023-04-01T22:48:27.879Z,70.44
2023-04-01T22:51:13.937Z,67.15
2023-04-01T22:54:09.759Z,66.16
2023-04-01T22:56:38.391Z,65.11
2023-04-01T22:59:21.194Z,65.39
2023-04-01T23:01:51.534Z,65.41
2023-04-01T23:04:23.094Z,65.79
2023-04-01T23:06:55.612Z,65.54
2023-04-01T23:09:25.590Z,65.98
2023-04-01T23:11:53.027Z,66.57
2023-04-01T23:14:24.437Z,66.70
2023-04-01T23:16:54.414Z,65.80
2023-04-01T23:19:40.372Z,65.86
2023-04-01T23:22:17.622Z,65.80
2023-04-01T23:24:50.438Z,66.60
2023-04-01T23:27:20.311Z,66.51
2023-04-01T23:29:47.087Z,66.94
2023-04-01T23:32:18.908Z,67.03
2023-04-01T23:34:54.560Z,66.39
2023-04-01T23:37:21.815Z,66.70
2023-04-01T23:39:53.054Z,66.97
2023-04-01T23:42:23.026Z,66.97
2023-04-01T23:44:50.621Z,65.54
2023-04-01T23:47:19.992Z,66.78
2023-04-01T23:49:50.263Z,65.44
2023-04-01T23:52:23.494Z,64.97
2023-04-01T23:55:00.914Z,64.34
2023-04-01T23:57:31.541Z,63.32
